Time;durP1;ratioP1;P1;durP2;ratioP2;P2;SDS_P1;SDS_P2;PMS_P1;PMS_P2;Temp;Humidity;BMP_temperature;BMP_pressure;BME280_temperature;BME280_humidity;BME280_pressure;Samples;Min_cycle;Max_cycle;Signal;HPM_P1;HPM_P2
2022/05/28 00:03:57;;;;;;;7.90;5.20;;;;;;;13.83;62.16;98751.94;232441;1217;139047;-61
2022/05/28 00:09:01;;;;;;;8.00;5.70;;;;;;;13.84;62.51;98751.13;233684;1217;140157;-61
2022/05/28 00:14:06;;;;;;;7.60;5.00;;;;;;;13.79;62.47;98757.44;233622;1217;138808;-61
2022/05/28 00:19:09;;;;;;;8.50;5.40;;;;;;;13.73;62.14;98758.95;233604;1217;138896;-61
2022/05/28 00:24:12;;;;;;;7.50;4.90;;;;;;;13.66;62.24;98768.08;233372;1215;139517;-59
2022/05/28 00:29:15;;;;;;;8.60;4.80;;;;;;;13.61;62.16;98759.24;233272;1217;140478;-60
2022/05/28 00:34:18;;;;;;;7.60;5.00;;;;;;;13.64;62.34;98758.75;233524;1217;139497;-60
2022/05/28 00:39:21;;;;;;;8.00;5.80;;;;;;;13.64;62.30;98752.69;233576;1217;138991;-61
2022/05/28 00:44:24;;;;;;;10.60;5.30;;;;;;;13.62;62.18;98755.05;232244;1217;139854;-61
2022/05/28 00:49:30;;;;;;;10.50;5.50;;;;;;;13.55;62.29;98749.88;233479;1218;138920;-60
2022/05/28 00:54:35;;;;;;;;;;;;;;;13.52;62.45;98749.75;233858;1217;139102;-60
2022/05/28 00:59:38;;;;;;;9.50;5.70;;;;;;;13.39;62.23;98735.44;233872;1217;126129;-59
2022/05/28 01:04:47;;;;;;;8.40;5.80;;;;;;;13.35;62.32;98738.62;233682;1217;140088;-63
2022/05/28 01:10:04;;;;;;;11.00;5.30;;;;;;;13.28;62.14;98732.93;233531;1217;139016;-62
2022/05/28 01:15:22;;;;;;;8.60;5.90;;;;;;;13.27;62.19;98728.77;233679;1217;139884;-65
2022/05/28 01:20:34;;;;;;;11.60;6.00;;;;;;;13.28;62.43;98730.23;233429;1217;138938;-64
2022/05/28 01:26:05;;;;;;;6.50;5.40;;;;;;;13.31;62.15;98728.57;233095;1217;139137;-62
2022/05/28 01:31:09;;;;;;;13.90;6.20;;;;;;;13.28;62.21;98726.15;233630;1216;138891;-62
2022/05/28 01:36:14;;;;;;;10.40;6.00;;;;;;;13.24;62.47;98727.69;233554;1217;139646;-62
2022/05/28 01:41:19;;;;;;;8.90;5.50;;;;;;;13.23;62.02;98726.54;233508;1217;138890;-61
2022/05/28 01:46:27;;;;;;;10.40;5.80;;;;;;;13.23;62.33;98719.19;233583;1217;138838;-62
2022/05/28 01:51:37;;;;;;;11.00;5.70;;;;;;;13.20;62.54;98724.64;232200;1217;140317;-60
2022/05/28 01:56:44;;;;;;;9.00;5.00;;;;;;;13.18;62.29;98717.34;233461;1217;141340;-62
2022/05/28 02:01:47;;;;;;;11.50;5.70;;;;;;;13.13;61.99;98728.38;233636;1217;139362;-62
2022/05/28 02:06:50;;;;;;;9.80;5.70;;;;;;;13.07;62.25;98728.48;233897;1217;138980;-63
2022/05/28 02:12:21;;;;;;;9.70;5.90;;;;;;;13.01;62.25;98722.69;233712;1217;139393;-62
2022/05/28 02:17:26;;;;;;;9.50;6.40;;;;;;;12.94;62.25;98710.39;233746;1217;138584;-61
2022/05/28 02:22:48;;;;;;;;;;;;;;;12.91;62.29;98718.30;233619;1217;138910;-62
2022/05/28 02:27:53;;;;;;;6.90;5.90;;;;;;;12.87;62.78;98726.93;233582;1217;125254;-60
2022/05/28 02:33:01;;;;;;;9.30;6.00;;;;;;;12.81;62.58;98733.30;233478;1217;138370;-61
2022/05/28 02:38:03;;;;;;;11.00;6.30;;;;;;;12.80;62.59;98735.71;233520;1217;140066;-63
2022/05/28 02:43:07;;;;;;;10.50;6.90;;;;;;;12.84;62.89;98735.07;233606;1217;139520;-61
2022/05/28 02:48:10;;;;;;;11.90;7.60;;;;;;;12.87;62.36;98723.99;233617;1216;139580;-61
2022/05/28 02:53:13;;;;;;;11.80;7.10;;;;;;;12.85;62.69;98710.92;233130;1217;139027;-64
2022/05/28 02:58:17;;;;;;;9.80;7.40;;;;;;;12.77;62.54;98714.23;233444;1219;138888;-62
2022/05/28 03:03:20;;;;;;;12.50;8.10;;;;;;;12.69;62.50;98717.47;233670;1217;138900;-62
2022/05/28 03:08:23;;;;;;;13.40;8.10;;;;;;;12.67;62.62;98723.71;233795;1217;139835;-62
2022/05/28 03:13:25;;;;;;;11.30;8.70;;;;;;;12.64;62.80;98723.57;233732;1217;139232;-62
2022/05/28 03:18:28;;;;;;;14.80;8.30;;;;;;;12.65;62.68;98735.91;233761;1217;140050;-63
2022/05/28 03:23:32;;;;;;;15.80;10.00;;;;;;;12.73;62.84;98725.39;233669;1217;139321;-61
2022/05/28 03:28:35;;;;;;;12.20;9.10;;;;;;;12.78;62.78;98727.30;233703;1217;139003;-63
2022/05/28 03:33:38;;;;;;;15.00;8.30;;;;;;;12.77;63.02;98719.40;233769;1217;139119;-62
2022/05/28 03:38:41;;;;;;;12.70;8.20;;;;;;;12.72;63.02;98715.33;233467;1218;138932;-61
2022/05/28 03:43:44;;;;;;;12.90;7.90;;;;;;;12.68;63.07;98719.86;233498;1217;139248;-60
2022/05/28 03:48:47;;;;;;;14.30;8.40;;;;;;;12.73;63.38;98724.66;233687;1217;138722;-62
2022/05/28 03:53:51;;;;;;;15.70;8.60;;;;;;;12.76;63.33;98727.43;233172;1217;139000;-62
2022/05/28 03:58:54;;;;;;;12.10;7.90;;;;;;;12.86;63.19;98729.51;233581;1217;139421;-62
2022/05/28 04:03:57;;;;;;;11.10;8.20;;;;;;;13.03;63.47;98720.73;233693;1217;139933;-61
2022/05/28 04:09:00;;;;;;;12.90;7.50;;;;;;;13.12;63.40;98715.77;233621;1217;139217;-61
2022/05/28 04:14:03;;;;;;;11.50;8.00;;;;;;;13.17;63.04;98715.27;233656;1217;139642;-62
2022/05/28 04:19:06;;;;;;;12.60;7.10;;;;;;;13.22;63.29;98707.01;233799;1216;140791;-61
2022/05/28 04:24:10;;;;;;;19.60;13.80;;;;;;;13.29;63.54;98706.80;233649;1217;138917;-61
2022/05/28 04:29:13;;;;;;;12.20;9.10;;;;;;;13.38;63.67;98702.00;231811;1219;139261;-60
2022/05/28 04:34:16;;;;;;;18.70;12.70;;;;;;;13.45;63.66;98702.66;233626;1217;139253;-61
2022/05/28 04:39:19;;;;;;;7.00;5.10;;;;;;;13.55;63.23;98703.39;233534;1218;140111;-63
2022/05/28 04:44:22;;;;;;;10.30;5.20;;;;;;;13.66;63.21;98699.83;233593;1217;139449;-59
2022/05/28 04:49:25;;;;;;;12.40;5.70;;;;;;;13.75;63.13;98702.30;233539;1219;139609;-59
2022/05/28 04:54:28;;;;;;;11.50;6.30;;;;;;;13.78;63.09;98711.13;233594;1217;139345;-59
2022/05/28 04:59:32;;;;;;;10.00;6.20;;;;;;;13.76;62.95;98715.41;232829;1219;139438;-60
2022/05/28 05:04:35;;;;;;;10.80;6.90;;;;;;;13.72;62.64;98706.94;233454;1217;138975;-63
2022/05/28 05:09:38;;;;;;;9.50;6.10;;;;;;;13.68;62.85;98709.64;233624;1217;138759;-60
2022/05/28 05:14:41;;;;;;;10.10;7.00;;;;;;;13.64;62.91;98704.61;233814;1217;139128;-59
2022/05/28 05:19:44;;;;;;;7.00;5.10;;;;;;;13.74;62.86;98705.02;233592;1217;139854;-61
2022/05/28 05:24:47;;;;;;;7.90;5.50;;;;;;;13.85;63.03;98715.23;233619;1217;139680;-62
2022/05/28 05:29:50;;;;;;;8.20;5.60;;;;;;;13.86;62.97;98713.16;233540;1217;139329;-61
2022/05/28 05:34:54;;;;;;;8.60;5.80;;;;;;;13.89;62.80;98701.52;233459;1217;138895;-60
2022/05/28 05:40:00;;;;;;;9.90;5.90;;;;;;;13.85;62.62;98700.02;233465;1217;138392;-61
2022/05/28 05:45:04;;;;;;;102.90;74.50;;;;;;;13.91;62.47;98698.88;233520;1217;139770;-60
2022/05/28 05:50:07;;;;;;;11.90;6.20;;;;;;;14.01;63.07;98704.10;233595;1217;232140;-61
2022/05/28 05:55:10;;;;;;;11.90;5.50;;;;;;;14.06;62.49;98710.30;233701;1217;139014;-61
2022/05/28 06:00:14;;;;;;;16.50;6.70;;;;;;;14.08;62.32;98724.27;233541;1217;139592;-60
2022/05/28 06:05:17;;;;;;;7.80;4.10;;;;;;;14.14;62.40;98721.44;233532;1217;140010;-61
2022/05/28 06:10:20;;;;;;;8.20;3.70;;;;;;;14.30;62.05;98721.39;233624;1217;139472;-61
2022/05/28 06:15:22;;;;;;;8.20;3.10;;;;;;;14.39;61.42;98724.36;233595;1215;138602;-61
2022/05/28 06:20:26;;;;;;;11.20;3.50;;;;;;;14.40;60.83;98716.37;233577;1217;138844;-60
2022/05/28 06:25:29;;;;;;;37.60;23.10;;;;;;;14.41;60.18;98710.98;233547;1217;139020;-60
2022/05/28 06:30:32;;;;;;;12.00;3.50;;;;;;;14.46;59.96;98708.98;233481;1217;141565;-61
2022/05/28 06:35:35;;;;;;;10.80;3.80;;;;;;;14.45;59.93;98701.55;233497;1217;139234;-61
2022/05/28 06:40:38;;;;;;;12.30;3.90;;;;;;;14.53;59.46;98713.78;233479;1217;139075;-60
2022/05/28 06:45:41;;;;;;;12.80;3.80;;;;;;;14.52;59.16;98711.52;233604;1217;139038;-59
2022/05/28 06:51:02;;;;;;;11.10;3.30;;;;;;;14.51;58.79;98712.00;233452;1218;140882;-60
2022/05/28 06:56:07;;;;;;;10.20;3.50;;;;;;;14.54;58.59;98703.17;233567;1217;140233;-61
2022/05/28 07:01:11;;;;;;;10.80;3.60;;;;;;;14.58;58.42;98699.79;233453;1218;138855;-60
2022/05/28 07:06:15;;;;;;;12.10;2.80;;;;;;;14.61;58.11;98695.02;233601;1219;139090;-60
2022/05/28 07:11:18;;;;;;;11.10;3.20;;;;;;;14.72;57.82;98688.27;233450;1217;139215;-59
2022/05/28 07:16:21;;;;;;;7.00;2.60;;;;;;;14.79;57.33;98688.33;232568;1217;139159;-59
2022/05/28 07:21:24;;;;;;;13.10;3.50;;;;;;;14.86;57.07;98676.16;233674;1217;138906;-59
2022/05/28 07:26:28;;;;;;;8.70;2.30;;;;;;;14.98;56.86;98676.23;233609;1217;139156;-60
2022/05/28 07:31:31;;;;;;;11.10;2.10;;;;;;;15.05;56.10;98670.56;233585;1217;139434;-61
2022/05/28 07:36:35;;;;;;;6.80;1.80;;;;;;;15.01;55.53;98669.34;233741;1217;139044;-59
2022/05/28 07:41:38;;;;;;;6.00;1.80;;;;;;;14.98;55.28;98673.34;233497;1217;138933;-59
2022/05/28 07:46:41;;;;;;;8.50;2.00;;;;;;;14.98;54.72;98673.76;233530;1217;140017;-59
2022/05/28 07:51:46;;;;;;;8.20;1.90;;;;;;;14.92;54.52;98669.05;233655;1217;138944;-58
2022/05/28 07:56:49;;;;;;;7.00;1.50;;;;;;;14.93;54.33;98669.66;233710;1217;138840;-59
2022/05/28 08:01:52;;;;;;;6.60;1.50;;;;;;;14.89;53.88;98669.61;233369;1217;138818;-59
2022/05/28 08:06:55;;;;;;;6.60;1.80;;;;;;;14.91;53.66;98662.83;233717;1217;139383;-59
2022/05/28 08:11:58;;;;;;;7.50;1.20;;;;;;;15.00;53.05;98662.23;233577;1217;138715;-60
2022/05/28 08:17:01;;;;;;;6.40;1.30;;;;;;;15.01;52.25;98662.34;233658;1217;139176;-61
2022/05/28 08:27:26;;;;;;;4.10;1.10;;;;;;;15.02;51.26;98664.23;233577;1217;139017;-60
2022/05/28 08:32:29;;;;;;;3.70;1.00;;;;;;;15.05;50.82;98666.46;233485;1217;138975;-60
2022/05/28 08:37:32;;;;;;;5.20;1.40;;;;;;;15.06;50.52;98660.84;233278;1217;138979;-59
2022/05/28 08:42:35;;;;;;;5.40;1.20;;;;;;;15.20;50.85;98646.90;233819;1217;138995;-60
2022/05/28 08:47:42;;;;;;;4.70;1.30;;;;;;;15.46;50.48;98658.21;233484;1217;139116;-60
2022/05/28 08:53:13;;;;;;;4.50;1.30;;;;;;;15.55;49.99;98660.26;233618;1217;138892;-59
2022/05/28 08:58:24;;;;;;;4.00;0.80;;;;;;;15.61;49.52;98655.84;233410;1220;138901;-62
2022/05/28 09:03:54;;;;;;;4.70;1.20;;;;;;;15.70;49.22;98643.85;233509;1217;139984;-61
2022/05/28 09:08:57;;;;;;;6.20;1.10;;;;;;;15.74;48.98;98639.46;233616;1217;138650;-59
2022/05/28 09:14:28;;;;;;;6.50;1.00;;;;;;;15.81;48.57;98636.91;233550;1217;139874;-61
2022/05/28 09:19:36;;;;;;;3.40;1.10;;;;;;;16.00;48.40;98640.63;233489;1217;141743;-62
2022/05/28 09:24:41;;;;;;;2.40;0.70;;;;;;;16.21;47.98;98644.06;233691;1217;139068;-61
2022/05/28 09:29:55;;;;;;;5.20;1.10;;;;;;;16.34;47.52;98638.13;233423;1219;138737;-62
2022/05/28 09:34:58;;;;;;;6.30;1.10;;;;;;;16.47;46.94;98637.89;233578;1217;141677;-61
2022/05/28 09:40:07;;;;;;;4.90;1.10;;;;;;;16.51;46.80;98625.45;233678;1217;139418;-60
2022/05/28 09:45:29;;;;;;;3.80;1.20;;;;;;;16.63;46.42;98633.52;233510;1216;138722;-61
2022/05/28 09:50:42;;;;;;;4.40;1.30;;;;;;;16.80;46.97;98631.89;232277;1219;138633;-59
2022/05/28 09:55:54;;;;;;;3.70;1.20;;;;;;;16.99;46.88;98624.76;233099;1217;139547;-58
2022/05/28 10:01:09;;;;;;;3.80;1.20;;;;;;;17.09;46.54;98621.45;233798;1217;140847;-60
2022/05/28 10:06:16;;;;;;;3.80;1.00;;;;;;;17.09;46.51;98625.75;233716;1217;138957;-60
2022/05/28 10:11:22;;;;;;;5.10;1.10;;;;;;;17.01;45.78;98615.02;233646;1217;138761;-61
2022/05/28 10:16:38;;;;;;;23.30;18.50;;;;;;;17.16;45.60;98612.71;233659;1217;139305;-59
2022/05/28 10:21:55;;;;;;;7.20;1.20;;;;;;;17.40;45.52;98612.20;232842;1217;138979;-58
2022/05/28 10:26:59;;;;;;;5.40;1.30;;;;;;;17.52;44.73;98604.02;233403;1217;139246;-59
2022/05/28 10:32:03;;;;;;;4.50;1.10;;;;;;;17.70;44.44;98608.70;233411;1217;139111;-61
2022/05/28 10:37:13;;;;;;;4.70;1.20;;;;;;;17.85;44.06;98604.08;233654;1216;139055;-62
2022/05/28 10:42:16;;;;;;;24.20;16.10;;;;;;;18.00;43.91;98585.13;233624;1217;139324;-62
2022/05/28 10:47:22;;;;;;;6.40;1.20;;;;;;;18.16;44.00;98597.55;233506;1217;139490;-62
2022/05/28 10:52:34;;;;;;;3.00;1.10;;;;;;;18.10;43.07;98580.77;233492;1217;139365;-62
2022/05/28 10:58:00;;;;;;;3.60;1.30;;;;;;;17.92;42.96;98584.10;233580;1217;140885;-62
2022/05/28 11:03:50;;;;;;;3.30;0.90;;;;;;;18.09;42.78;98576.89;233635;1217;138908;-63
2022/05/28 11:09:36;;;;;;;13.80;8.20;;;;;;;18.35;42.43;98570.63;233118;1220;139038;-62
2022/05/28 11:14:45;;;;;;;3.30;1.00;;;;;;;18.60;42.28;98570.41;233535;1217;139300;-63
2022/05/28 11:20:15;;;;;;;6.60;1.40;;;;;;;18.40;41.35;98581.14;233539;1217;138788;-63
2022/05/28 11:25:20;;;;;;;6.80;1.40;;;;;;;18.12;41.58;98591.52;233742;1217;139002;-64
2022/05/28 11:30:31;;;;;;;;;;;;;;;17.95;41.49;98603.21;233714;1217;140316;-63
2022/05/28 11:35:40;;;;;;;18.40;11.80;;;;;;;17.94;41.54;98614.11;233594;1217;125369;-64
2022/05/28 11:40:58;;;;;;;2.80;0.80;;;;;;;18.07;42.12;98615.45;233400;1217;142033;-63
2022/05/28 11:46:32;;;;;;;3.50;0.90;;;;;;;18.01;41.27;98619.53;233411;1215;138955;-63
2022/05/28 11:52:02;;;;;;;5.00;0.70;;;;;;;17.94;41.76;98645.28;233441;1217;138891;-63
2022/05/28 11:57:28;;;;;;;4.40;0.80;;;;;;;17.58;41.70;98668.77;233582;1217;138891;-63
2022/05/28 12:02:35;;;;;;;;;;;;;;;17.01;41.79;98671.64;232551;1217;138851;-63
2022/05/28 12:07:40;;;;;;;2.10;0.70;;;;;;;16.46;42.56;98661.52;233409;1215;126561;-64
2022/05/28 12:12:53;;;;;;;4.30;0.60;;;;;;;16.02;43.29;98651.81;233605;1217;139570;-64
2022/05/28 12:18:03;;;;;;;4.20;0.80;;;;;;;16.20;44.33;98645.54;233574;1217;139097;-63
2022/05/28 12:23:06;;;;;;;1.90;0.50;;;;;;;16.57;44.24;98644.05;233527;1217;138916;-65
2022/05/28 12:28:24;;;;;;;2.90;0.60;;;;;;;16.77;43.28;98645.43;233508;1218;139017;-64
2022/05/28 12:33:47;;;;;;;2.60;0.60;;;;;;;16.74;43.14;98645.44;233397;1217;142128;-64
2022/05/28 12:39:05;;;;;;;2.40;0.70;;;;;;;16.77;43.23;98647.56;233463;1217;140058;-64
2022/05/28 12:44:08;;;;;;;122.40;90.60;;;;;;;16.87;43.05;98649.05;233391;1217;139034;-64
2022/05/28 12:49:22;;;;;;;3.80;2.00;;;;;;;16.90;42.95;98652.65;233823;1216;139516;-63
2022/05/28 12:54:28;;;;;;;1.50;0.70;;;;;;;16.81;42.88;98648.38;233646;1217;138780;-64
2022/05/28 12:59:41;;;;;;;3.70;0.80;;;;;;;17.08;43.02;98648.45;233479;1217;139371;-63
2022/05/28 13:05:09;;;;;;;1.10;0.50;;;;;;;17.42;42.75;98641.65;233707;1217;139109;-64
2022/05/28 13:10:19;;;;;;;0.90;0.30;;;;;;;17.71;42.62;98643.41;233499;1217;139189;-64
2022/05/28 13:15:40;;;;;;;2.70;1.30;;;;;;;17.97;42.48;98648.51;233551;1217;138984;-63
2022/05/28 13:20:45;;;;;;;2.10;0.60;;;;;;;18.16;42.43;98653.59;233553;1217;138916;-61
2022/05/28 13:26:07;;;;;;;0.80;0.50;;;;;;;18.36;42.00;98659.08;232739;1217;138824;-61
2022/05/28 13:31:12;;;;;;;1.70;0.60;;;;;;;18.55;41.92;98642.60;233539;1217;139234;-63
2022/05/28 13:36:16;;;;;;;1.10;0.60;;;;;;;18.78;41.46;98645.71;233443;1217;139143;-62
2022/05/28 13:41:24;;;;;;;4.10;0.90;;;;;;;18.97;41.47;98630.84;233513;1217;138636;-61
2022/05/28 13:46:27;;;;;;;35.60;28.80;;;;;;;19.32;41.28;98627.01;233532;1217;139159;-63
2022/05/28 13:51:31;;;;;;;4.10;2.00;;;;;;;19.47;40.63;98627.89;233546;1215;139142;-63
2022/05/28 13:56:34;;;;;;;4.80;1.00;;;;;;;19.22;40.02;98636.73;233613;1215;139032;-61
2022/05/28 14:01:38;;;;;;;4.40;0.90;;;;;;;18.69;39.92;98678.30;233656;1216;140487;-61
2022/05/28 14:06:49;;;;;;;2.30;0.80;;;;;;;18.08;39.78;98687.74;234156;1217;138773;-63
2022/05/28 14:11:52;;;;;;;2.00;0.80;;;;;;;17.87;40.49;98682.63;232145;1216;139430;-62
2022/05/28 14:16:58;;;;;;;3.00;1.00;;;;;;;17.66;40.27;98677.86;233488;1217;138503;-63
2022/05/28 14:22:05;;;;;;;3.00;0.60;;;;;;;17.40;40.34;98689.80;234212;1216;138723;-59
2022/05/28 14:27:11;;;;;;;60.50;46.70;;;;;;;17.47;40.98;98681.31;234186;1216;139099;-62
2022/05/28 14:32:18;;;;;;;3.50;1.00;;;;;;;17.57;41.23;98687.38;234149;1216;141545;-62
2022/05/28 14:37:23;;;;;;;4.00;0.60;;;;;;;17.50;40.94;98687.80;232601;1215;138489;-60
2022/05/28 14:42:31;;;;;;;2.20;0.70;;;;;;;17.41;41.38;98685.66;234226;1216;138880;-61
2022/05/28 14:47:35;;;;;;;1.80;0.70;;;;;;;17.35;41.46;98692.52;233967;1217;139035;-59
2022/05/28 14:52:40;;;;;;;1.70;0.40;;;;;;;17.24;41.42;98692.43;233904;1216;138972;-56
2022/05/28 14:57:43;;;;;;;2.60;0.50;;;;;;;17.16;41.62;98685.88;234017;1215;138812;-63
2022/05/28 15:02:47;;;;;;;45.40;36.60;;;;;;;17.13;41.95;98691.52;233907;1216;138369;-59
2022/05/28 15:07:56;;;;;;;3.50;2.10;;;;;;;17.05;42.15;98689.74;233770;1216;139679;-59
2022/05/28 15:13:20;;;;;;;4.80;0.80;;;;;;;16.99;42.27;98676.02;233930;1217;139874;-60
2022/05/28 15:18:26;;;;;;;1.60;0.70;;;;;;;16.86;42.14;98675.45;233879;1216;138978;-59
2022/05/28 15:23:30;;;;;;;4.10;1.00;;;;;;;16.78;42.57;98668.33;234096;1216;141212;-59
2022/05/28 15:28:33;;;;;;;2.60;0.80;;;;;;;16.76;42.67;98672.54;233397;1216;138810;-59
2022/05/28 15:33:36;;;;;;;1.20;0.70;;;;;;;16.76;42.69;98664.14;233353;1217;138705;-60
2022/05/28 15:38:39;;;;;;;1.50;0.80;;;;;;;16.77;42.83;98675.91;233243;1217;138511;-59
2022/05/28 15:43:42;;;;;;;4.00;1.00;;;;;;;16.70;42.85;98665.65;233278;1217;138938;-59
2022/05/28 15:48:46;;;;;;;2.20;1.00;;;;;;;16.66;42.99;98659.52;233364;1217;139981;-59
2022/05/28 15:53:52;;;;;;;2.30;0.80;;;;;;;16.61;42.93;98655.93;233351;1217;140500;-61
2022/05/28 15:58:56;;;;;;;4.30;1.40;;;;;;;16.62;43.14;98661.56;233287;1217;138510;-59
2022/05/28 16:03:59;;;;;;;23.10;19.30;;;;;;;16.68;43.43;98657.95;233258;1216;139092;-60
2022/05/28 16:09:04;;;;;;;3.70;1.40;;;;;;;16.79;43.76;98662.70;233304;1216;140982;-59
2022/05/28 16:14:11;;;;;;;2.50;1.10;;;;;;;16.80;43.00;98667.42;233327;1217;138808;-60
2022/05/28 16:19:14;;;;;;;2.10;1.00;;;;;;;16.69;43.41;98668.77;233220;1217;139138;-61
2022/05/28 16:24:18;;;;;;;26.30;19.30;;;;;;;16.62;43.66;98668.16;233114;1217;139596;-59
2022/05/28 16:29:23;;;;;;;4.10;2.00;;;;;;;16.57;43.70;98666.27;233229;1217;140348;-59
2022/05/28 16:34:26;;;;;;;2.40;1.30;;;;;;;16.55;43.75;98669.20;233238;1217;139151;-60
2022/05/28 16:39:29;;;;;;;2.90;1.00;;;;;;;16.47;43.64;98666.84;233247;1217;139720;-59
2022/05/28 16:44:32;;;;;;;2.90;1.20;;;;;;;16.45;43.67;98670.98;233279;1217;139634;-60
2022/05/28 16:49:35;;;;;;;2.70;1.40;;;;;;;16.46;43.69;98666.58;233314;1215;139045;-58
2022/05/28 16:54:38;;;;;;;1.50;0.90;;;;;;;16.47;43.84;98658.23;233327;1216;138661;-60
2022/05/28 16:59:41;;;;;;;2.10;0.80;;;;;;;16.56;43.26;98657.81;233213;1215;139040;-60
2022/05/28 17:04:45;;;;;;;5.80;1.30;;;;;;;16.60;42.82;98659.91;233401;1217;139865;-59
2022/05/28 17:09:48;;;;;;;1.90;1.00;;;;;;;16.59;43.00;98660.36;233271;1217;139149;-60
2022/05/28 17:14:52;;;;;;;2.90;0.80;;;;;;;16.52;42.24;98664.81;233200;1217;140220;-60
2022/05/28 17:19:55;;;;;;;1.10;0.80;;;;;;;16.49;41.97;98669.88;233205;1217;138758;-60
2022/05/28 17:24:59;;;;;;;1.90;0.80;;;;;;;16.41;42.11;98673.83;233555;1217;139795;-60
2022/05/28 17:30:03;;;;;;;2.40;1.00;;;;;;;16.36;41.69;98676.12;233410;1216;139741;-59
2022/05/28 17:35:08;;;;;;;2.00;1.00;;;;;;;16.34;41.52;98679.88;233163;1216;139636;-60
2022/05/28 17:40:14;;;;;;;4.70;1.20;;;;;;;16.40;41.52;98683.95;233255;1217;139933;-61
2022/05/28 17:45:18;;;;;;;3.30;1.30;;;;;;;16.42;41.17;98679.85;233430;1217;138867;-60
2022/05/28 17:50:23;;;;;;;3.00;1.10;;;;;;;16.46;41.16;98696.38;233321;1217;139570;-60
2022/05/28 17:55:27;;;;;;;5.20;1.20;;;;;;;16.41;41.02;98692.30;233406;1216;141274;-60
2022/05/28 18:00:31;;;;;;;3.40;1.40;;;;;;;16.39;40.91;98701.65;233317;1217;138945;-60
2022/05/28 18:05:39;;;;;;;3.80;1.00;;;;;;;16.35;40.85;98702.50;233381;1217;138943;-61
2022/05/28 18:10:42;;;;;;;1.60;0.90;;;;;;;16.29;40.85;98702.34;233393;1217;139639;-59
2022/05/28 18:15:53;;;;;;;3.90;1.40;;;;;;;16.24;41.15;98705.84;233173;1217;138850;-61
2022/05/28 18:20:56;;;;;;;5.50;1.00;;;;;;;16.22;41.14;98714.63;233259;1217;139457;-60
2022/05/28 18:26:00;;;;;;;4.00;1.30;;;;;;;16.19;41.32;98714.73;233223;1217;139792;-60
2022/05/28 18:31:03;;;;;;;10.70;5.50;;;;;;;16.15;41.60;98718.66;233280;1217;139980;-59
2022/05/28 18:36:09;;;;;;;5.70;2.00;;;;;;;16.16;41.66;98732.52;233460;1217;139445;-61
2022/05/28 18:41:12;;;;;;;5.00;1.10;;;;;;;16.09;41.49;98743.39;233278;1217;139374;-60
2022/05/28 18:46:16;;;;;;;4.20;1.10;;;;;;;16.04;41.75;98753.64;233308;1217;139195;-61
2022/05/28 18:51:25;;;;;;;3.30;1.30;;;;;;;16.00;41.83;98750.44;233171;1217;138922;-61
2022/05/28 18:56:29;;;;;;;;;;;;;;;15.89;41.70;98752.46;233484;1216;139548;-60
2022/05/28 19:01:33;;;;;;;5.30;1.40;;;;;;;15.77;41.91;98760.36;233560;1216;125351;-62
2022/05/28 19:06:42;;;;;;;4.80;1.50;;;;;;;15.68;42.02;98771.14;233366;1217;139193;-60
2022/05/28 19:11:50;;;;;;;4.60;1.50;;;;;;;15.58;41.99;98768.23;233206;1217;139391;-60
2022/05/28 19:17:14;;;;;;;4.20;1.60;;;;;;;15.50;42.10;98778.59;233227;1217;138880;-60
2022/05/28 19:22:18;;;;;;;3.40;1.40;;;;;;;15.43;42.09;98782.40;233200;1217;141834;-61
2022/05/28 19:27:21;;;;;;;3.30;1.40;;;;;;;15.33;41.99;98790.89;233290;1217;138835;-61
2022/05/28 19:32:29;;;;;;;61.70;54.80;;;;;;;15.28;42.17;98796.70;233320;1217;138973;-61
2022/05/28 19:37:37;;;;;;;4.70;3.00;;;;;;;15.32;42.53;98800.30;233618;1217;140487;-62
2022/05/28 19:42:49;;;;;;;5.30;1.80;;;;;;;15.28;42.43;98808.23;233462;1217;139269;-62
2022/05/28 19:47:59;;;;;;;5.00;1.70;;;;;;;15.20;42.33;98808.73;233185;1219;139883;-62
2022/05/28 19:53:02;;;;;;;5.30;1.80;;;;;;;15.12;42.38;98813.29;233332;1217;139622;-63
2022/05/28 19:58:06;;;;;;;4.50;1.40;;;;;;;15.07;42.41;98820.16;233296;1217;139047;-62
2022/05/28 20:03:12;;;;;;;4.10;1.80;;;;;;;15.00;42.43;98818.98;233289;1216;139587;-63
2022/05/28 20:08:16;;;;;;;4.30;2.10;;;;;;;14.92;42.60;98819.08;233198;1217;139494;-62
2022/05/28 20:13:21;;;;;;;6.90;2.00;;;;;;;14.86;42.71;98816.36;233518;1217;138344;-62
2022/05/28 20:18:25;;;;;;;4.40;1.80;;;;;;;14.82;42.94;98822.04;233474;1217;139861;-62
2022/05/28 20:23:35;;;;;;;3.80;1.80;;;;;;;14.82;43.12;98822.24;233244;1217;139001;-62
2022/05/28 20:28:38;;;;;;;3.60;1.90;;;;;;;14.78;43.22;98826.27;233269;1217;138936;-63
2022/05/28 20:33:42;;;;;;;7.40;2.30;;;;;;;14.73;43.42;98832.45;233247;1217;139193;-63
2022/05/28 20:38:45;;;;;;;6.40;2.80;;;;;;;14.68;43.51;98831.98;233366;1217;138934;-63
2022/05/28 20:43:48;;;;;;;6.80;2.70;;;;;;;14.67;43.93;98825.23;233448;1217;139421;-61
2022/05/28 20:48:57;;;;;;;6.00;2.50;;;;;;;14.61;43.99;98812.55;233283;1217;138758;-61
2022/05/28 20:54:00;;;;;;;7.70;2.90;;;;;;;14.59;44.26;98812.33;233228;1217;139105;-63
2022/05/28 20:59:05;;;;;;;6.50;2.40;;;;;;;14.59;44.31;98809.67;233441;1217;140831;-63
2022/05/28 21:04:08;;;;;;;4.00;2.50;;;;;;;14.54;44.27;98800.24;233438;1217;139190;-63
2022/05/28 21:09:17;;;;;;;4.60;2.40;;;;;;;14.54;44.27;98799.52;233405;1217;139089;-62
2022/05/28 21:14:20;;;;;;;4.90;2.20;;;;;;;14.49;44.36;98797.25;233402;1216;139101;-63
2022/05/28 21:19:27;;;;;;;4.90;2.50;;;;;;;14.40;44.56;98796.90;233496;1217;139448;-63
2022/05/28 21:24:30;;;;;;;5.30;2.80;;;;;;;14.37;44.62;98800.58;233255;1216;140440;-62
2022/05/28 21:34:57;;;;;;;9.20;3.00;;;;;;;14.32;44.72;98801.13;233323;1217;138998;-62
2022/05/28 21:40:00;;;;;;;5.00;2.90;;;;;;;14.24;44.91;98787.34;233448;1217;138918;-62
2022/05/28 21:45:04;;;;;;;6.50;3.20;;;;;;;14.13;45.10;98785.02;233355;1217;138775;-61
2022/05/28 21:50:09;;;;;;;8.20;2.90;;;;;;;14.07;45.21;98784.02;233321;1217;138703;-63
2022/05/28 21:55:18;;;;;;;6.30;3.00;;;;;;;14.06;45.48;98788.81;233414;1217;138932;-62
2022/05/28 22:00:23;;;;;;;5.00;3.10;;;;;;;14.00;45.85;98782.67;233429;1217;139707;-63
2022/05/28 22:05:28;;;;;;;9.60;3.80;;;;;;;13.94;46.00;98779.59;233280;1217;139087;-62
2022/05/28 22:10:31;;;;;;;9.10;3.90;;;;;;;13.87;46.29;98779.06;233391;1217;138304;-62
2022/05/28 22:15:34;;;;;;;7.60;3.70;;;;;;;13.82;46.35;98773.92;233390;1217;140035;-63
2022/05/28 22:20:39;;;;;;;8.70;3.80;;;;;;;13.76;46.76;98769.23;233393;1217;139140;-62
2022/05/28 22:25:42;;;;;;;9.60;3.90;;;;;;;13.72;46.89;98765.07;233354;1217;139141;-62
2022/05/28 22:30:45;;;;;;;11.60;3.90;;;;;;;13.65;47.15;98768.84;233263;1217;138491;-62
2022/05/28 22:35:49;;;;;;;7.00;3.80;;;;;;;13.62;47.14;98759.71;233183;1217;139109;-62
2022/05/28 22:40:52;;;;;;;8.60;3.90;;;;;;;13.55;47.38;98757.25;233246;1217;138893;-62
2022/05/28 22:45:57;;;;;;;6.80;4.10;;;;;;;13.45;47.60;98753.69;233213;1217;139041;-62
2022/05/28 22:51:04;;;;;;;8.00;4.10;;;;;;;13.38;47.71;98748.89;233210;1217;151464;-61
2022/05/28 22:56:11;;;;;;;8.10;4.00;;;;;;;13.34;48.00;98748.50;233346;1216;138893;-63
2022/05/28 23:01:15;;;;;;;9.40;4.20;;;;;;;13.27;48.07;98742.81;233475;1217;138949;-63
2022/05/28 23:06:23;;;;;;;7.30;4.30;;;;;;;13.26;48.56;98735.77;233364;1217;139317;-62
2022/05/28 23:11:25;;;;;;;8.80;4.50;;;;;;;13.25;48.70;98731.39;233022;1217;139135;-62
2022/05/28 23:16:29;;;;;;;9.90;4.40;;;;;;;13.23;48.94;98728.83;233293;1217;139457;-62
2022/05/28 23:21:36;;;;;;;8.40;5.00;;;;;;;13.18;48.48;98731.58;233406;1217;138694;-62
2022/05/28 23:26:39;;;;;;;10.00;5.30;;;;;;;13.15;48.89;98738.05;233387;1217;139276;-62
2022/05/28 23:31:44;;;;;;;9.50;5.30;;;;;;;13.12;49.20;98732.91;233512;1216;139018;-62
2022/05/28 23:36:47;;;;;;;12.50;5.10;;;;;;;13.06;49.01;98731.02;233246;1217;138777;-65
2022/05/28 23:41:50;;;;;;;10.60;5.40;;;;;;;12.96;49.40;98725.91;233441;1217;139366;-63